Waterloo Airport
CYKF : now visible

Airfield :











YOU CAN JOIN US ON...

 
LOGIN :

Register | Disclaimer

   EN    FR    IT 

 









Legend :    VFR   Marginal VFR   IFR   Intensive IFR   Very Intensive IFR
Visi :
Ceiling :
>= 8 km
>= 3000ft
5 to 8 km
1000 to 3000 ft
1500m to 5 km
500 to 1000 ft
800 to 1500m
200 to 500 ft
< 800m
< 200 ft
Symbols :   Thunderstorms  Fog  Heavy snow  Heavy precipitations  Wind > 20 kt






- Airport Elevation : 1054 ft
- IATA code : YKF


CYKF - Waterloo

CURRENT METAR :
  • 140800Z AUTO 19007KT 9SM BKN070 OVC180 M04/M07 A3008 RMK SLP202

EXPIRED METARs :
  • 140700Z AUTO 17007KT 9SM BKN029 BKN095 BKN130 M04/M07 A3009 RMK SLP209
  • 140600Z AUTO 14006KT 9SM BKN034 BKN190 OVC220 M06/M08 A3011 RMK SLP214

TAF TAF CYKF
Valid from the 14 at 08:00 until the 14 at 20:00 UTC


140740Z 1408/1420 17008KT P6SM BKN030 OVC080
TEMPO 1408/1417 2SM -SN BKN020 OVC040
BECMG 1412/1414 24010G20KT
FM141800 24012G22KT P6SM FEW025 OVC040 RMK FCST BASED ON AUTO OBS. NXT FCST BY 141400Z



MET'MAP, your aeronautical weather chart ! - Copyright ORBIFLY December 2007 - Disclaimer

ORBIFLY MET'MAP TEAM :

Programming & Development : Alexandra Zaïnal
Concept & Development : Baudouin d'Aumeries
Co-Development & Prog : Marc-Olivier Méhu
Technical & hardware support : Manuel Goepfert

Contact : metmap@orbifly.com




SOURCES & CREDITS :

   NOAA       Earth
Advisory